カリーニングラード の空港の天気 - METARとTAF

フラブロヴォ空港 ( UMKK / KGD ) - ロシア カリーニングラード
飛行場実況気象(Metar)
観測時間11/12 17:30 EET (11/12 15:30 UTC)
風向・風速南東 3m/s
視程10km以上
天気現象
全天の8割程度の雲 雲底高度 1220m
気温8℃
湿度81%
気圧1010hPa
METARUMKK 121530Z 14003MPS 9999 BKN040 08/05 Q1010 R24/CLRD95 NOSIG RMK QFE756/1009
過去の天気等 Google飛行場航空写真 Wunderground天気予報

過去48時間のMETAR

飛行場予報(TAF)
発表時間: 11/12 15:58 EET (11/12 13:58 UTC)
予報対象時間: 12日17時 EET ~ 13日17時 EET
風向・風速南南東 5m/s 瞬間風速 10m/s
視程10km以上
全天の4割程度の雲 雲底高度 340m
全天の8割程度の雲 雲底高度 610m
12日20時 EET ~ 12日22時 EET に徐々に
風向・風速南東 6m/s
12日23時 EET ~ 13日11時 EET に一時的に
視程3100m
天気現象弱い雨 もや
全天の8割程度の雲 雲底高度 120m
全天を覆う雲 雲底高度 340m
13日5時 EET ~ 13日7時 EET に徐々に
風向・風速南南東 5m/s 瞬間風速 10m/s
13日11時 EET から
風向・風速南 5m/s 瞬間風速 10m/s
視程4000m
天気現象弱い雨 もや
全天の8割程度の雲 雲底高度 340m
13日11時 EET ~ 13日17時 EET に一時的に
風向・風速東南東 6m/s
視程2100m
天気現象弱いしゅう雨 もや
全天の8割程度の雲 雲底高度 90m
全天の8割程度の積乱雲 雲底高度 400m
TAF UMKK 121358Z 1215/1315 15005G10MPS 9999 SCT011 BKN020
BECMG 1218/1220 13006MPS
TEMPO 1221/1309 3100 -RA BR BKN004 OVC011
BECMG 1303/1305 15005G10MPS
FM130900 17005G10MPS 4000 -RA BR BKN011
TEMPO 1309/1315 12006MPS 2100 -SHRA BR BKN003 BKN013CB